sensor_id;sensor_type;location;lat;lon;timestamp;P1;durP1;ratioP1;P2;durP2;ratioP2
48987;SDS011;34799;51.440;-2.534;2022-07-29T00:02:09;4.28;;;2.25;;
48987;SDS011;34799;51.440;-2.534;2022-07-29T00:04:37;8.90;;;1.65;;
48987;SDS011;34799;51.440;-2.534;2022-07-29T00:07:04;5.45;;;1.83;;
48987;SDS011;34799;51.440;-2.534;2022-07-29T00:09:32;5.35;;;1.95;;
48987;SDS011;34799;51.440;-2.534;2022-07-29T00:12:01;4.63;;;2.00;;
48987;SDS011;34799;51.440;-2.534;2022-07-29T00:14:28;5.40;;;1.63;;
48987;SDS011;34799;51.440;-2.534;2022-07-29T00:16:56;6.50;;;1.63;;
48987;SDS011;34799;51.440;-2.534;2022-07-29T00:19:23;5.32;;;1.67;;
48987;SDS011;34799;51.440;-2.534;2022-07-29T00:21:51;3.58;;;1.58;;
48987;SDS011;34799;51.440;-2.534;2022-07-29T00:24:18;7.38;;;1.77;;
48987;SDS011;34799;51.440;-2.534;2022-07-29T00:26:46;5.00;;;2.40;;
48987;SDS011;34799;51.440;-2.534;2022-07-29T00:29:13;5.38;;;1.70;;
48987;SDS011;34799;51.440;-2.534;2022-07-29T00:31:58;6.10;;;2.20;;
48987;SDS011;34799;51.440;-2.534;2022-07-29T00:34:25;8.52;;;1.95;;
48987;SDS011;34799;51.440;-2.534;2022-07-29T00:37:12;11.52;;;2.38;;
48987;SDS011;34799;51.440;-2.534;2022-07-29T00:39:40;5.78;;;1.80;;
48987;SDS011;34799;51.440;-2.534;2022-07-29T00:42:07;5.82;;;1.70;;
48987;SDS011;34799;51.440;-2.534;2022-07-29T00:44:37;4.82;;;2.55;;
48987;SDS011;34799;51.440;-2.534;2022-07-29T00:47:06;5.72;;;2.67;;
48987;SDS011;34799;51.440;-2.534;2022-07-29T00:49:35;6.97;;;2.22;;
48987;SDS011;34799;51.440;-2.534;2022-07-29T00:52:06;6.03;;;2.33;;
48987;SDS011;34799;51.440;-2.534;2022-07-29T00:54:35;7.47;;;2.15;;
48987;SDS011;34799;51.440;-2.534;2022-07-29T00:57:04;4.78;;;1.95;;
48987;SDS011;34799;51.440;-2.534;2022-07-29T00:59:34;4.88;;;2.15;;
48987;SDS011;34799;51.440;-2.534;2022-07-29T01:02:02;4.28;;;1.98;;
48987;SDS011;34799;51.440;-2.534;2022-07-29T01:04:30;4.53;;;2.10;;
48987;SDS011;34799;51.440;-2.534;2022-07-29T01:07:00;5.63;;;2.00;;
48987;SDS011;34799;51.440;-2.534;2022-07-29T01:09:28;6.45;;;2.00;;
48987;SDS011;34799;51.440;-2.534;2022-07-29T01:11:57;9.65;;;2.40;;
48987;SDS011;34799;51.440;-2.534;2022-07-29T01:14:27;7.07;;;1.85;;
48987;SDS011;34799;51.440;-2.534;2022-07-29T01:16:58;6.75;;;2.33;;
48987;SDS011;34799;51.440;-2.534;2022-07-29T01:31:00;4.07;;;1.77;;
48987;SDS011;34799;51.440;-2.534;2022-07-29T01:33:29;6.50;;;2.10;;
48987;SDS011;34799;51.440;-2.534;2022-07-29T01:36:18;4.03;;;1.83;;
48987;SDS011;34799;51.440;-2.534;2022-07-29T01:39:19;10.80;;;2.65;;
48987;SDS011;34799;51.440;-2.534;2022-07-29T01:42:02;5.30;;;1.80;;
48987;SDS011;34799;51.440;-2.534;2022-07-29T01:44:50;4.85;;;2.03;;
48987;SDS011;34799;51.440;-2.534;2022-07-29T01:47:30;9.52;;;2.47;;
48987;SDS011;34799;51.440;-2.534;2022-07-29T01:50:01;5.47;;;2.30;;
48987;SDS011;34799;51.440;-2.534;2022-07-29T01:52:36;6.40;;;2.60;;
48987;SDS011;34799;51.440;-2.534;2022-07-29T01:55:12;9.90;;;3.22;;
48987;SDS011;34799;51.440;-2.534;2022-07-29T01:57:42;5.43;;;2.25;;
48987;SDS011;34799;51.440;-2.534;2022-07-29T02:00:12;5.07;;;2.45;;
48987;SDS011;34799;51.440;-2.534;2022-07-29T02:02:41;7.18;;;1.95;;
48987;SDS011;34799;51.440;-2.534;2022-07-29T02:05:12;4.28;;;2.28;;
48987;SDS011;34799;51.440;-2.534;2022-07-29T02:07:42;5.22;;;2.05;;
48987;SDS011;34799;51.440;-2.534;2022-07-29T02:10:10;6.22;;;2.47;;
48987;SDS011;34799;51.440;-2.534;2022-07-29T02:12:41;6.30;;;2.25;;
48987;SDS011;34799;51.440;-2.534;2022-07-29T02:15:10;8.27;;;2.70;;
48987;SDS011;34799;51.440;-2.534;2022-07-29T02:17:40;6.63;;;2.38;;
48987;SDS011;34799;51.440;-2.534;2022-07-29T02:20:10;7.13;;;2.58;;
48987;SDS011;34799;51.440;-2.534;2022-07-29T02:22:38;8.52;;;2.83;;
48987;SDS011;34799;51.440;-2.534;2022-07-29T02:25:07;6.40;;;2.45;;
48987;SDS011;34799;51.440;-2.534;2022-07-29T02:27:35;6.18;;;2.35;;
48987;SDS011;34799;51.440;-2.534;2022-07-29T02:30:04;6.50;;;2.63;;
48987;SDS011;34799;51.440;-2.534;2022-07-29T02:32:37;6.78;;;2.42;;
48987;SDS011;34799;51.440;-2.534;2022-07-29T02:35:08;7.15;;;2.95;;
48987;SDS011;34799;51.440;-2.534;2022-07-29T02:37:36;6.80;;;2.72;;
48987;SDS011;34799;51.440;-2.534;2022-07-29T02:40:07;6.85;;;2.90;;
48987;SDS011;34799;51.440;-2.534;2022-07-29T02:42:38;5.28;;;3.25;;
48987;SDS011;34799;51.440;-2.534;2022-07-29T02:45:09;8.13;;;3.40;;
48987;SDS011;34799;51.440;-2.534;2022-07-29T02:47:39;9.20;;;3.63;;
48987;SDS011;34799;51.440;-2.534;2022-07-29T02:50:17;5.05;;;3.22;;
48987;SDS011;34799;51.440;-2.534;2022-07-29T02:52:54;6.50;;;3.10;;
48987;SDS011;34799;51.440;-2.534;2022-07-29T02:55:43;9.65;;;3.08;;
48987;SDS011;34799;51.440;-2.534;2022-07-29T02:58:26;4.95;;;2.65;;
48987;SDS011;34799;51.440;-2.534;2022-07-29T03:00:57;10.23;;;3.70;;
48987;SDS011;34799;51.440;-2.534;2022-07-29T03:03:28;6.32;;;3.33;;
48987;SDS011;34799;51.440;-2.534;2022-07-29T03:06:01;7.25;;;3.22;;
48987;SDS011;34799;51.440;-2.534;2022-07-29T03:08:29;6.75;;;3.20;;
48987;SDS011;34799;51.440;-2.534;2022-07-29T03:10:58;7.45;;;2.75;;
48987;SDS011;34799;51.440;-2.534;2022-07-29T03:13:27;7.05;;;2.83;;
48987;SDS011;34799;51.440;-2.534;2022-07-29T03:15:55;5.10;;;2.83;;
48987;SDS011;34799;51.440;-2.534;2022-07-29T03:18:25;7.15;;;2.80;;
48987;SDS011;34799;51.440;-2.534;2022-07-29T03:20:52;8.10;;;2.97;;
48987;SDS011;34799;51.440;-2.534;2022-07-29T03:23:20;7.22;;;2.70;;
48987;SDS011;34799;51.440;-2.534;2022-07-29T03:25:49;7.03;;;2.58;;
48987;SDS011;34799;51.440;-2.534;2022-07-29T03:28:17;6.05;;;2.55;;
48987;SDS011;34799;51.440;-2.534;2022-07-29T03:30:44;6.95;;;2.58;;
48987;SDS011;34799;51.440;-2.534;2022-07-29T03:33:11;3.97;;;2.42;;
48987;SDS011;34799;51.440;-2.534;2022-07-29T03:35:38;5.97;;;2.80;;
48987;SDS011;34799;51.440;-2.534;2022-07-29T03:38:05;7.53;;;3.10;;
48987;SDS011;34799;51.440;-2.534;2022-07-29T03:41:09;5.75;;;2.60;;
48987;SDS011;34799;51.440;-2.534;2022-07-29T03:43:32;3.97;;;2.45;;
48987;SDS011;34799;51.440;-2.534;2022-07-29T03:46:03;5.28;;;3.00;;
48987;SDS011;34799;51.440;-2.534;2022-07-29T03:48:34;4.78;;;2.70;;
48987;SDS011;34799;51.440;-2.534;2022-07-29T03:51:06;8.40;;;2.50;;
48987;SDS011;34799;51.440;-2.534;2022-07-29T03:53:33;5.97;;;2.72;;
48987;SDS011;34799;51.440;-2.534;2022-07-29T03:56:02;5.75;;;2.65;;
48987;SDS011;34799;51.440;-2.534;2022-07-29T03:58:31;6.95;;;2.88;;
48987;SDS011;34799;51.440;-2.534;2022-07-29T04:00:59;4.60;;;2.80;;
48987;SDS011;34799;51.440;-2.534;2022-07-29T04:03:26;4.90;;;2.60;;
48987;SDS011;34799;51.440;-2.534;2022-07-29T04:06:03;8.68;;;2.63;;
48987;SDS011;34799;51.440;-2.534;2022-07-29T04:08:33;6.60;;;2.85;;
48987;SDS011;34799;51.440;-2.534;2022-07-29T04:11:01;7.97;;;3.05;;
48987;SDS011;34799;51.440;-2.534;2022-07-29T04:13:29;3.85;;;2.67;;
48987;SDS011;34799;51.440;-2.534;2022-07-29T04:15:56;6.10;;;2.60;;
48987;SDS011;34799;51.440;-2.534;2022-07-29T04:18:24;5.63;;;2.75;;
48987;SDS011;34799;51.440;-2.534;2022-07-29T04:20:51;11.05;;;2.58;;
48987;SDS011;34799;51.440;-2.534;2022-07-29T04:23:18;4.20;;;2.50;;
48987;SDS011;34799;51.440;-2.534;2022-07-29T04:25:45;5.13;;;2.97;;
48987;SDS011;34799;51.440;-2.534;2022-07-29T04:28:12;3.42;;;2.70;;
48987;SDS011;34799;51.440;-2.534;2022-07-29T04:30:39;6.38;;;2.75;;
48987;SDS011;34799;51.440;-2.534;2022-07-29T04:33:08;4.65;;;3.63;;
48987;SDS011;34799;51.440;-2.534;2022-07-29T04:35:36;6.53;;;3.22;;
48987;SDS011;34799;51.440;-2.534;2022-07-29T04:38:04;5.88;;;2.72;;
48987;SDS011;34799;51.440;-2.534;2022-07-29T04:40:32;6.78;;;2.90;;
48987;SDS011;34799;51.440;-2.534;2022-07-29T04:43:00;8.48;;;2.60;;
48987;SDS011;34799;51.440;-2.534;2022-07-29T04:45:28;7.72;;;2.85;;
48987;SDS011;34799;51.440;-2.534;2022-07-29T04:47:55;5.22;;;2.90;;
48987;SDS011;34799;51.440;-2.534;2022-07-29T04:50:23;7.10;;;3.38;;
48987;SDS011;34799;51.440;-2.534;2022-07-29T04:52:50;8.50;;;3.45;;
48987;SDS011;34799;51.440;-2.534;2022-07-29T04:55:18;5.07;;;2.50;;
48987;SDS011;34799;51.440;-2.534;2022-07-29T04:57:45;9.55;;;3.20;;
48987;SDS011;34799;51.440;-2.534;2022-07-29T05:00:13;9.27;;;2.92;;
48987;SDS011;34799;51.440;-2.534;2022-07-29T05:02:40;9.38;;;2.78;;
48987;SDS011;34799;51.440;-2.534;2022-07-29T05:05:07;5.93;;;2.78;;
48987;SDS011;34799;51.440;-2.534;2022-07-29T05:07:36;7.95;;;2.40;;
48987;SDS011;34799;51.440;-2.534;2022-07-29T05:10:04;4.15;;;2.25;;
48987;SDS011;34799;51.440;-2.534;2022-07-29T05:12:31;5.80;;;2.72;;
48987;SDS011;34799;51.440;-2.534;2022-07-29T05:14:58;7.50;;;3.92;;
48987;SDS011;34799;51.440;-2.534;2022-07-29T05:17:26;7.15;;;2.60;;
48987;SDS011;34799;51.440;-2.534;2022-07-29T05:19:54;5.53;;;2.63;;
48987;SDS011;34799;51.440;-2.534;2022-07-29T05:22:21;5.28;;;2.50;;
48987;SDS011;34799;51.440;-2.534;2022-07-29T05:24:48;9.13;;;3.20;;
48987;SDS011;34799;51.440;-2.534;2022-07-29T05:27:15;5.60;;;3.00;;
48987;SDS011;34799;51.440;-2.534;2022-07-29T05:29:42;6.15;;;2.97;;
48987;SDS011;34799;51.440;-2.534;2022-07-29T05:32:12;10.82;;;3.45;;
48987;SDS011;34799;51.440;-2.534;2022-07-29T05:34:40;4.75;;;2.63;;
48987;SDS011;34799;51.440;-2.534;2022-07-29T05:37:07;5.47;;;2.53;;
48987;SDS011;34799;51.440;-2.534;2022-07-29T05:39:34;5.20;;;2.28;;
48987;SDS011;34799;51.440;-2.534;2022-07-29T05:42:01;6.60;;;3.00;;
48987;SDS011;34799;51.440;-2.534;2022-07-29T05:44:28;5.38;;;2.63;;
48987;SDS011;34799;51.440;-2.534;2022-07-29T05:46:56;7.97;;;2.95;;
48987;SDS011;34799;51.440;-2.534;2022-07-29T05:49:23;7.65;;;2.40;;
48987;SDS011;34799;51.440;-2.534;2022-07-29T05:51:50;5.65;;;2.15;;
48987;SDS011;34799;51.440;-2.534;2022-07-29T05:54:17;9.48;;;2.30;;
48987;SDS011;34799;51.440;-2.534;2022-07-29T05:56:44;3.90;;;2.40;;
48987;SDS011;34799;51.440;-2.534;2022-07-29T05:59:12;5.13;;;2.22;;
48987;SDS011;34799;51.440;-2.534;2022-07-29T06:01:40;4.82;;;2.40;;
48987;SDS011;34799;51.440;-2.534;2022-07-29T06:04:08;4.18;;;2.15;;
48987;SDS011;34799;51.440;-2.534;2022-07-29T06:06:35;8.95;;;2.50;;
48987;SDS011;34799;51.440;-2.534;2022-07-29T06:09:02;5.55;;;1.92;;
48987;SDS011;34799;51.440;-2.534;2022-07-29T06:11:29;3.10;;;1.92;;
48987;SDS011;34799;51.440;-2.534;2022-07-29T06:13:56;3.92;;;1.65;;
48987;SDS011;34799;51.440;-2.534;2022-07-29T06:16:24;7.35;;;1.80;;
48987;SDS011;34799;51.440;-2.534;2022-07-29T06:18:51;4.07;;;1.75;;
48987;SDS011;34799;51.440;-2.534;2022-07-29T06:21:18;5.97;;;1.58;;
48987;SDS011;34799;51.440;-2.534;2022-07-29T06:23:46;5.07;;;1.50;;
48987;SDS011;34799;51.440;-2.534;2022-07-29T06:26:13;3.67;;;1.50;;
48987;SDS011;34799;51.440;-2.534;2022-07-29T06:28:40;3.88;;;1.40;;
48987;SDS011;34799;51.440;-2.534;2022-07-29T06:31:08;3.55;;;1.67;;
48987;SDS011;34799;51.440;-2.534;2022-07-29T06:33:36;5.40;;;1.40;;
48987;SDS011;34799;51.440;-2.534;2022-07-29T06:36:03;6.30;;;1.70;;
48987;SDS011;34799;51.440;-2.534;2022-07-29T06:38:32;4.22;;;1.50;;
48987;SDS011;34799;51.440;-2.534;2022-07-29T06:41:01;4.93;;;1.30;;
48987;SDS011;34799;51.440;-2.534;2022-07-29T06:43:34;7.75;;;1.67;;
48987;SDS011;34799;51.440;-2.534;2022-07-29T06:46:05;5.70;;;1.50;;
48987;SDS011;34799;51.440;-2.534;2022-07-29T06:48:38;7.20;;;2.85;;
48987;SDS011;34799;51.440;-2.534;2022-07-29T06:51:06;5.90;;;1.83;;
48987;SDS011;34799;51.440;-2.534;2022-07-29T06:53:33;2.58;;;1.60;;
48987;SDS011;34799;51.440;-2.534;2022-07-29T06:56:01;7.90;;;2.05;;
48987;SDS011;34799;51.440;-2.534;2022-07-29T06:58:30;3.85;;;1.27;;
48987;SDS011;34799;51.440;-2.534;2022-07-29T07:00:58;5.15;;;1.33;;
48987;SDS011;34799;51.440;-2.534;2022-07-29T07:03:27;4.38;;;1.58;;
48987;SDS011;34799;51.440;-2.534;2022-07-29T07:05:55;7.30;;;1.70;;
48987;SDS011;34799;51.440;-2.534;2022-07-29T07:08:23;6.72;;;1.42;;
48987;SDS011;34799;51.440;-2.534;2022-07-29T07:10:51;4.78;;;1.10;;
48987;SDS011;34799;51.440;-2.534;2022-07-29T07:13:19;2.88;;;0.85;;
48987;SDS011;34799;51.440;-2.534;2022-07-29T07:15:47;5.65;;;1.50;;
48987;SDS011;34799;51.440;-2.534;2022-07-29T07:18:15;9.10;;;1.90;;
48987;SDS011;34799;51.440;-2.534;2022-07-29T07:20:42;7.00;;;1.60;;
48987;SDS011;34799;51.440;-2.534;2022-07-29T07:23:09;2.97;;;1.23;;
48987;SDS011;34799;51.440;-2.534;2022-07-29T07:25:37;3.40;;;0.80;;
48987;SDS011;34799;51.440;-2.534;2022-07-29T07:28:05;3.65;;;1.08;;
48987;SDS011;34799;51.440;-2.534;2022-07-29T07:30:32;5.93;;;0.93;;
48987;SDS011;34799;51.440;-2.534;2022-07-29T07:33:00;6.85;;;0.88;;
48987;SDS011;34799;51.440;-2.534;2022-07-29T07:35:27;3.95;;;0.90;;
48987;SDS011;34799;51.440;-2.534;2022-07-29T07:37:55;8.32;;;1.38;;
48987;SDS011;34799;51.440;-2.534;2022-07-29T07:40:24;4.75;;;1.00;;
48987;SDS011;34799;51.440;-2.534;2022-07-29T07:42:52;5.90;;;0.90;;
48987;SDS011;34799;51.440;-2.534;2022-07-29T07:45:19;2.22;;;0.90;;
48987;SDS011;34799;51.440;-2.534;2022-07-29T07:47:46;6.70;;;1.25;;
48987;SDS011;34799;51.440;-2.534;2022-07-29T07:50:13;6.15;;;1.35;;
48987;SDS011;34799;51.440;-2.534;2022-07-29T07:52:54;6.78;;;1.23;;
48987;SDS011;34799;51.440;-2.534;2022-07-29T07:55:25;7.18;;;0.98;;
48987;SDS011;34799;51.440;-2.534;2022-07-29T07:57:54;6.38;;;1.00;;
48987;SDS011;34799;51.440;-2.534;2022-07-29T08:00:21;6.13;;;2.00;;
48987;SDS011;34799;51.440;-2.534;2022-07-29T08:02:49;5.18;;;1.00;;
48987;SDS011;34799;51.440;-2.534;2022-07-29T08:05:16;6.82;;;1.30;;
48987;SDS011;34799;51.440;-2.534;2022-07-29T08:07:45;8.13;;;0.88;;
48987;SDS011;34799;51.440;-2.534;2022-07-29T08:10:14;4.57;;;1.02;;
48987;SDS011;34799;51.440;-2.534;2022-07-29T08:13:05;6.18;;;1.67;;
48987;SDS011;34799;51.440;-2.534;2022-07-29T08:15:34;5.32;;;0.93;;
48987;SDS011;34799;51.440;-2.534;2022-07-29T08:18:01;4.95;;;1.08;;
48987;SDS011;34799;51.440;-2.534;2022-07-29T08:20:32;4.72;;;0.80;;
48987;SDS011;34799;51.440;-2.534;2022-07-29T08:23:02;2.92;;;0.90;;
48987;SDS011;34799;51.440;-2.534;2022-07-29T08:25:29;2.08;;;0.73;;
48987;SDS011;34799;51.440;-2.534;2022-07-29T08:27:57;4.00;;;0.70;;
48987;SDS011;34799;51.440;-2.534;2022-07-29T08:30:24;3.22;;;0.63;;
48987;SDS011;34799;51.440;-2.534;2022-07-29T08:32:51;6.22;;;1.13;;
48987;SDS011;34799;51.440;-2.534;2022-07-29T08:35:20;4.85;;;0.57;;
48987;SDS011;34799;51.440;-2.534;2022-07-29T08:37:49;7.38;;;1.35;;
48987;SDS011;34799;51.440;-2.534;2022-07-29T08:40:17;7.68;;;1.25;;
48987;SDS011;34799;51.440;-2.534;2022-07-29T08:42:44;5.88;;;1.60;;
48987;SDS011;34799;51.440;-2.534;2022-07-29T08:45:11;4.90;;;0.75;;
48987;SDS011;34799;51.440;-2.534;2022-07-29T08:47:39;2.83;;;0.90;;
48987;SDS011;34799;51.440;-2.534;2022-07-29T08:50:07;6.95;;;0.80;;
48987;SDS011;34799;51.440;-2.534;2022-07-29T08:52:37;2.65;;;0.60;;
48987;SDS011;34799;51.440;-2.534;2022-07-29T08:55:08;5.68;;;1.00;;
48987;SDS011;34799;51.440;-2.534;2022-07-29T08:57:36;3.42;;;1.08;;
48987;SDS011;34799;51.440;-2.534;2022-07-29T09:00:06;2.85;;;1.20;;
48987;SDS011;34799;51.440;-2.534;2022-07-29T09:02:40;5.05;;;0.90;;
48987;SDS011;34799;51.440;-2.534;2022-07-29T09:05:11;4.57;;;0.75;;
48987;SDS011;34799;51.440;-2.534;2022-07-29T09:07:39;3.53;;;0.80;;
48987;SDS011;34799;51.440;-2.534;2022-07-29T09:10:10;5.70;;;0.70;;
48987;SDS011;34799;51.440;-2.534;2022-07-29T09:12:37;2.05;;;0.80;;
48987;SDS011;34799;51.440;-2.534;2022-07-29T09:15:04;6.53;;;1.10;;
48987;SDS011;34799;51.440;-2.534;2022-07-29T09:17:45;7.30;;;1.25;;
48987;SDS011;34799;51.440;-2.534;2022-07-29T09:20:17;5.95;;;0.75;;
48987;SDS011;34799;51.440;-2.534;2022-07-29T09:22:46;5.65;;;1.02;;
48987;SDS011;34799;51.440;-2.534;2022-07-29T09:25:33;14.45;;;1.35;;
48987;SDS011;34799;51.440;-2.534;2022-07-29T09:28:05;5.90;;;0.80;;
48987;SDS011;34799;51.440;-2.534;2022-07-29T09:30:34;4.22;;;0.90;;
48987;SDS011;34799;51.440;-2.534;2022-07-29T09:33:02;6.40;;;0.80;;
48987;SDS011;34799;51.440;-2.534;2022-07-29T09:35:31;2.22;;;0.65;;
48987;SDS011;34799;51.440;-2.534;2022-07-29T09:38:01;10.25;;;1.02;;
48987;SDS011;34799;51.440;-2.534;2022-07-29T09:40:40;5.05;;;0.88;;
48987;SDS011;34799;51.440;-2.534;2022-07-29T09:43:11;4.57;;;0.73;;
48987;SDS011;34799;51.440;-2.534;2022-07-29T09:45:40;4.30;;;0.88;;
48987;SDS011;34799;51.440;-2.534;2022-07-29T09:48:13;3.63;;;0.63;;
48987;SDS011;34799;51.440;-2.534;2022-07-29T09:50:45;2.22;;;0.70;;
48987;SDS011;34799;51.440;-2.534;2022-07-29T09:53:30;1.85;;;0.68;;
48987;SDS011;34799;51.440;-2.534;2022-07-29T09:56:04;5.15;;;0.90;;
48987;SDS011;34799;51.440;-2.534;2022-07-29T09:58:31;4.38;;;0.90;;
48987;SDS011;34799;51.440;-2.534;2022-07-29T10:01:02;2.42;;;0.90;;
48987;SDS011;34799;51.440;-2.534;2022-07-29T10:03:30;4.25;;;0.70;;
48987;SDS011;34799;51.440;-2.534;2022-07-29T10:06:07;3.47;;;0.70;;
48987;SDS011;34799;51.440;-2.534;2022-07-29T10:08:39;4.53;;;0.80;;
48987;SDS011;34799;51.440;-2.534;2022-07-29T10:11:09;2.88;;;0.70;;
48987;SDS011;34799;51.440;-2.534;2022-07-29T10:13:39;1.95;;;0.70;;
48987;SDS011;34799;51.440;-2.534;2022-07-29T10:16:08;8.13;;;0.68;;
48987;SDS011;34799;51.440;-2.534;2022-07-29T10:18:37;5.25;;;0.70;;
48987;SDS011;34799;51.440;-2.534;2022-07-29T10:21:06;3.17;;;1.15;;
48987;SDS011;34799;51.440;-2.534;2022-07-29T10:23:33;4.10;;;0.80;;
48987;SDS011;34799;51.440;-2.534;2022-07-29T10:26:02;5.18;;;0.80;;
48987;SDS011;34799;51.440;-2.534;2022-07-29T10:28:31;3.80;;;0.80;;
48987;SDS011;34799;51.440;-2.534;2022-07-29T10:31:00;3.67;;;1.00;;
48987;SDS011;34799;51.440;-2.534;2022-07-29T10:36:20;4.03;;;1.10;;
48987;SDS011;34799;51.440;-2.534;2022-07-29T10:39:14;4.45;;;1.00;;
48987;SDS011;34799;51.440;-2.534;2022-07-29T10:42:16;2.80;;;0.68;;
48987;SDS011;34799;51.440;-2.534;2022-07-29T10:44:49;2.28;;;1.02;;
48987;SDS011;34799;51.440;-2.534;2022-07-29T10:47:24;5.22;;;1.05;;
48987;SDS011;34799;51.440;-2.534;2022-07-29T10:52:51;2.35;;;0.90;;
48987;SDS011;34799;51.440;-2.534;2022-07-29T10:55:53;7.20;;;1.25;;
48987;SDS011;34799;51.440;-2.534;2022-07-29T10:58:20;3.92;;;0.70;;
48987;SDS011;34799;51.440;-2.534;2022-07-29T11:00:52;4.35;;;0.60;;
48987;SDS011;34799;51.440;-2.534;2022-07-29T11:06:12;3.67;;;0.60;;
48987;SDS011;34799;51.440;-2.534;2022-07-29T11:08:40;3.03;;;0.82;;
48987;SDS011;34799;51.440;-2.534;2022-07-29T11:13:48;4.00;;;0.70;;
48987;SDS011;34799;51.440;-2.534;2022-07-29T11:16:18;3.78;;;0.90;;
48987;SDS011;34799;51.440;-2.534;2022-07-29T11:19:18;6.95;;;0.60;;
48987;SDS011;34799;51.440;-2.534;2022-07-29T11:21:45;7.15;;;1.38;;
48987;SDS011;34799;51.440;-2.534;2022-07-29T11:26:44;1.52;;;0.60;;
48987;SDS011;34799;51.440;-2.534;2022-07-29T11:29:21;5.53;;;0.82;;
48987;SDS011;34799;51.440;-2.534;2022-07-29T11:31:50;5.18;;;0.82;;
48987;SDS011;34799;51.440;-2.534;2022-07-29T11:34:28;3.83;;;1.10;;
48987;SDS011;34799;51.440;-2.534;2022-07-29T11:39:47;6.20;;;0.70;;
48987;SDS011;34799;51.440;-2.534;2022-07-29T11:47:32;3.65;;;0.63;;
48987;SDS011;34799;51.440;-2.534;2022-07-29T11:50:11;7.35;;;0.40;;
48987;SDS011;34799;51.440;-2.534;2022-07-29T11:52:45;3.17;;;0.70;;
48987;SDS011;34799;51.440;-2.534;2022-07-29T11:55:16;2.90;;;0.47;;
48987;SDS011;34799;51.440;-2.534;2022-07-29T11:57:45;5.80;;;0.60;;
48987;SDS011;34799;51.440;-2.534;2022-07-29T12:00:35;4.22;;;0.60;;
48987;SDS011;34799;51.440;-2.534;2022-07-29T12:03:07;5.88;;;0.60;;
48987;SDS011;34799;51.440;-2.534;2022-07-29T12:05:38;1.42;;;0.40;;
48987;SDS011;34799;51.440;-2.534;2022-07-29T12:08:19;4.00;;;0.60;;
48987;SDS011;34799;51.440;-2.534;2022-07-29T12:10:53;2.38;;;0.65;;
48987;SDS011;34799;51.440;-2.534;2022-07-29T12:13:20;2.70;;;0.75;;
48987;SDS011;34799;51.440;-2.534;2022-07-29T12:15:51;3.10;;;0.50;;
48987;SDS011;34799;51.440;-2.534;2022-07-29T12:18:21;3.78;;;0.40;;
48987;SDS011;34799;51.440;-2.534;2022-07-29T12:20:48;1.95;;;0.47;;
48987;SDS011;34799;51.440;-2.534;2022-07-29T12:23:22;2.15;;;0.50;;
48987;SDS011;34799;51.440;-2.534;2022-07-29T12:25:49;1.73;;;0.40;;
48987;SDS011;34799;51.440;-2.534;2022-07-29T12:28:16;2.55;;;0.57;;
48987;SDS011;34799;51.440;-2.534;2022-07-29T12:30:47;3.72;;;0.55;;
48987;SDS011;34799;51.440;-2.534;2022-07-29T12:35:45;2.88;;;0.47;;
48987;SDS011;34799;51.440;-2.534;2022-07-29T12:38:23;3.25;;;0.40;;
48987;SDS011;34799;51.440;-2.534;2022-07-29T12:40:51;1.52;;;0.47;;
48987;SDS011;34799;51.440;-2.534;2022-07-29T12:43:24;2.88;;;0.40;;
48987;SDS011;34799;51.440;-2.534;2022-07-29T12:45:52;2.63;;;0.68;;
48987;SDS011;34799;51.440;-2.534;2022-07-29T12:48:33;5.45;;;0.40;;
48987;SDS011;34799;51.440;-2.534;2022-07-29T12:51:02;2.58;;;0.30;;
48987;SDS011;34799;51.440;-2.534;2022-07-29T12:53:30;5.57;;;0.40;;
48987;SDS011;34799;51.440;-2.534;2022-07-29T12:55:58;2.33;;;0.40;;
48987;SDS011;34799;51.440;-2.534;2022-07-29T13:01:35;1.50;;;0.52;;
48987;SDS011;34799;51.440;-2.534;2022-07-29T13:03:54;4.07;;;0.50;;
48987;SDS011;34799;51.440;-2.534;2022-07-29T13:08:59;2.20;;;0.50;;
48987;SDS011;34799;51.440;-2.534;2022-07-29T13:11:29;1.75;;;0.52;;
48987;SDS011;34799;51.440;-2.534;2022-07-29T13:14:14;2.00;;;0.32;;
48987;SDS011;34799;51.440;-2.534;2022-07-29T13:19:35;3.80;;;0.40;;
48987;SDS011;34799;51.440;-2.534;2022-07-29T13:22:04;1.77;;;0.30;;
48987;SDS011;34799;51.440;-2.534;2022-07-29T13:24:31;6.40;;;0.40;;
48987;SDS011;34799;51.440;-2.534;2022-07-29T13:26:59;1.08;;;0.30;;
48987;SDS011;34799;51.440;-2.534;2022-07-29T13:29:26;2.40;;;0.30;;
48987;SDS011;34799;51.440;-2.534;2022-07-29T13:31:57;4.65;;;0.90;;
48987;SDS011;34799;51.440;-2.534;2022-07-29T13:34:24;2.72;;;0.30;;
48987;SDS011;34799;51.440;-2.534;2022-07-29T13:36:51;3.05;;;0.25;;
48987;SDS011;34799;51.440;-2.534;2022-07-29T13:39:18;2.38;;;0.50;;
48987;SDS011;34799;51.440;-2.534;2022-07-29T13:41:45;2.60;;;0.45;;
48987;SDS011;34799;51.440;-2.534;2022-07-29T13:44:12;6.10;;;0.30;;
48987;SDS011;34799;51.440;-2.534;2022-07-29T13:46:41;4.47;;;0.45;;
48987;SDS011;34799;51.440;-2.534;2022-07-29T13:49:08;2.60;;;0.30;;
48987;SDS011;34799;51.440;-2.534;2022-07-29T13:51:35;1.55;;;0.55;;
48987;SDS011;34799;51.440;-2.534;2022-07-29T13:54:02;1.90;;;0.50;;
48987;SDS011;34799;51.440;-2.534;2022-07-29T13:56:30;3.05;;;0.40;;
48987;SDS011;34799;51.440;-2.534;2022-07-29T13:58:59;1.25;;;0.52;;
48987;SDS011;34799;51.440;-2.534;2022-07-29T14:01:26;2.05;;;0.40;;
48987;SDS011;34799;51.440;-2.534;2022-07-29T14:03:54;3.63;;;0.50;;
48987;SDS011;34799;51.440;-2.534;2022-07-29T14:06:21;2.20;;;0.30;;
48987;SDS011;34799;51.440;-2.534;2022-07-29T14:08:48;1.77;;;0.43;;
48987;SDS011;34799;51.440;-2.534;2022-07-29T14:11:16;3.90;;;0.40;;
48987;SDS011;34799;51.440;-2.534;2022-07-29T14:13:44;2.20;;;0.30;;
48987;SDS011;34799;51.440;-2.534;2022-07-29T14:16:11;3.53;;;0.40;;
48987;SDS011;34799;51.440;-2.534;2022-07-29T14:18:38;3.42;;;0.40;;
48987;SDS011;34799;51.440;-2.534;2022-07-29T14:21:06;3.50;;;0.40;;
48987;SDS011;34799;51.440;-2.534;2022-07-29T14:23:33;1.85;;;0.30;;
48987;SDS011;34799;51.440;-2.534;2022-07-29T14:26:01;2.45;;;0.30;;
48987;SDS011;34799;51.440;-2.534;2022-07-29T14:28:28;2.90;;;0.30;;
48987;SDS011;34799;51.440;-2.534;2022-07-29T14:30:55;1.88;;;0.50;;
48987;SDS011;34799;51.440;-2.534;2022-07-29T14:33:22;2.03;;;0.35;;
48987;SDS011;34799;51.440;-2.534;2022-07-29T14:35:49;1.35;;;0.45;;
48987;SDS011;34799;51.440;-2.534;2022-07-29T14:38:22;1.98;;;0.30;;
48987;SDS011;34799;51.440;-2.534;2022-07-29T14:40:50;2.00;;;0.38;;
48987;SDS011;34799;51.440;-2.534;2022-07-29T14:43:17;2.08;;;0.30;;
48987;SDS011;34799;51.440;-2.534;2022-07-29T14:45:45;1.98;;;0.28;;
48987;SDS011;34799;51.440;-2.534;2022-07-29T14:48:12;4.13;;;0.38;;
48987;SDS011;34799;51.440;-2.534;2022-07-29T14:50:39;2.10;;;0.40;;
48987;SDS011;34799;51.440;-2.534;2022-07-29T14:53:06;4.00;;;0.30;;
48987;SDS011;34799;51.440;-2.534;2022-07-29T14:55:37;3.00;;;0.90;;
48987;SDS011;34799;51.440;-2.534;2022-07-29T14:58:05;2.35;;;0.38;;
48987;SDS011;34799;51.440;-2.534;2022-07-29T15:00:35;2.45;;;0.40;;
48987;SDS011;34799;51.440;-2.534;2022-07-29T15:03:03;3.92;;;0.40;;
48987;SDS011;34799;51.440;-2.534;2022-07-29T15:05:31;7.13;;;0.60;;
48987;SDS011;34799;51.440;-2.534;2022-07-29T15:08:06;1.85;;;0.82;;
48987;SDS011;34799;51.440;-2.534;2022-07-29T15:10:34;5.13;;;0.50;;
48987;SDS011;34799;51.440;-2.534;2022-07-29T15:13:02;8.07;;;1.27;;
48987;SDS011;34799;51.440;-2.534;2022-07-29T15:15:30;4.28;;;0.60;;
48987;SDS011;34799;51.440;-2.534;2022-07-29T15:17:57;4.00;;;0.65;;
48987;SDS011;34799;51.440;-2.534;2022-07-29T15:20:25;5.05;;;0.77;;
48987;SDS011;34799;51.440;-2.534;2022-07-29T15:22:53;6.55;;;0.82;;
48987;SDS011;34799;51.440;-2.534;2022-07-29T15:25:23;3.13;;;0.52;;
48987;SDS011;34799;51.440;-2.534;2022-07-29T15:27:52;4.25;;;0.55;;
48987;SDS011;34799;51.440;-2.534;2022-07-29T15:30:20;3.58;;;0.50;;
48987;SDS011;34799;51.440;-2.534;2022-07-29T15:32:47;2.72;;;0.70;;
48987;SDS011;34799;51.440;-2.534;2022-07-29T15:35:15;3.05;;;0.70;;